sensor_id;sensor_type;location;lat;lon;timestamp;temperature;humidity
63051;SHT30;49136;47.416;19.402;2023-03-23T00:01:05;4.06;94.40
63051;SHT30;49136;47.416;19.402;2023-03-23T00:03:31;4.07;94.09
63051;SHT30;49136;47.416;19.402;2023-03-23T00:05:59;4.03;94.72
63051;SHT30;49136;47.416;19.402;2023-03-23T00:08:30;4.00;94.80
63051;SHT30;49136;47.416;19.402;2023-03-23T00:10:56;3.99;94.66
63051;SHT30;49136;47.416;19.402;2023-03-23T00:13:25;3.94;94.87
63051;SHT30;49136;47.416;19.402;2023-03-23T00:15:51;3.87;94.74
63051;SHT30;49136;47.416;19.402;2023-03-23T00:18:20;3.79;94.57
63051;SHT30;49136;47.416;19.402;2023-03-23T00:20:51;3.75;94.94
63051;SHT30;49136;47.416;19.402;2023-03-23T00:23:18;3.82;95.84
63051;SHT30;49136;47.416;19.402;2023-03-23T00:25:49;3.83;95.06
63051;SHT30;49136;47.416;19.402;2023-03-23T00:28:16;3.81;95.66
63051;SHT30;49136;47.416;19.402;2023-03-23T00:30:41;3.83;96.24
63051;SHT30;49136;47.416;19.402;2023-03-23T00:33:08;3.81;95.97
63051;SHT30;49136;47.416;19.402;2023-03-23T00:35:34;3.81;95.97
63051;SHT30;49136;47.416;19.402;2023-03-23T00:38:01;3.76;95.47
63051;SHT30;49136;47.416;19.402;2023-03-23T00:40:27;3.66;95.45
63051;SHT30;49136;47.416;19.402;2023-03-23T00:42:53;3.76;95.98
63051;SHT30;49136;47.416;19.402;2023-03-23T00:45:18;3.79;95.91
63051;SHT30;49136;47.416;19.402;2023-03-23T00:47:44;3.83;96.21
63051;SHT30;49136;47.416;19.402;2023-03-23T00:50:12;3.92;96.33
63051;SHT30;49136;47.416;19.402;2023-03-23T00:52:39;3.89;95.75
63051;SHT30;49136;47.416;19.402;2023-03-23T00:55:05;3.81;95.58
63051;SHT30;49136;47.416;19.402;2023-03-23T00:57:31;3.81;95.74
63051;SHT30;49136;47.416;19.402;2023-03-23T00:59:57;3.78;96.11
63051;SHT30;49136;47.416;19.402;2023-03-23T01:02:22;3.79;96.01
63051;SHT30;49136;47.416;19.402;2023-03-23T01:04:50;3.69;95.95
63051;SHT30;49136;47.416;19.402;2023-03-23T01:07:20;3.68;95.69
63051;SHT30;49136;47.416;19.402;2023-03-23T01:09:47;3.61;95.98
63051;SHT30;49136;47.416;19.402;2023-03-23T01:12:13;3.74;96.08
63051;SHT30;49136;47.416;19.402;2023-03-23T01:14:40;3.79;96.20
63051;SHT30;49136;47.416;19.402;2023-03-23T01:17:05;3.69;95.69
63051;SHT30;49136;47.416;19.402;2023-03-23T01:19:31;3.64;96.07
63051;SHT30;49136;47.416;19.402;2023-03-23T01:21:57;3.61;95.81
63051;SHT30;49136;47.416;19.402;2023-03-23T01:24:22;3.71;96.01
63051;SHT30;49136;47.416;19.402;2023-03-23T01:26:48;3.61;96.24
63051;SHT30;49136;47.416;19.402;2023-03-23T01:29:14;3.59;95.93
63051;SHT30;49136;47.416;19.402;2023-03-23T01:31:40;3.61;96.99
63051;SHT30;49136;47.416;19.402;2023-03-23T01:34:07;3.55;96.29
63051;SHT30;49136;47.416;19.402;2023-03-23T01:36:33;3.45;96.51
63051;SHT30;49136;47.416;19.402;2023-03-23T01:39:03;3.41;96.48
63051;SHT30;49136;47.416;19.402;2023-03-23T01:41:30;3.50;97.05
63051;SHT30;49136;47.416;19.402;2023-03-23T01:46:29;3.37;96.40
63051;SHT30;49136;47.416;19.402;2023-03-23T01:48:56;3.38;96.97
63051;SHT30;49136;47.416;19.402;2023-03-23T01:51:24;3.40;96.98
63051;SHT30;49136;47.416;19.402;2023-03-23T01:53:54;3.28;96.92
63051;SHT30;49136;47.416;19.402;2023-03-23T01:56:23;3.31;96.75
63051;SHT30;49136;47.416;19.402;2023-03-23T01:58:55;3.22;96.81
63051;SHT30;49136;47.416;19.402;2023-03-23T02:01:21;3.20;97.14
63051;SHT30;49136;47.416;19.402;2023-03-23T02:03:52;3.10;96.89
63051;SHT30;49136;47.416;19.402;2023-03-23T02:06:18;3.09;97.36
63051;SHT30;49136;47.416;19.402;2023-03-23T02:08:43;3.05;97.07
63051;SHT30;49136;47.416;19.402;2023-03-23T02:11:14;3.05;96.90
63051;SHT30;49136;47.416;19.402;2023-03-23T02:13:41;3.12;98.14
63051;SHT30;49136;47.416;19.402;2023-03-23T02:27:08;3.09;97.56
63051;SHT30;49136;47.416;19.402;2023-03-23T02:35:14;2.95;97.82
63051;SHT30;49136;47.416;19.402;2023-03-23T02:37:49;3.07;98.10
63051;SHT30;49136;47.416;19.402;2023-03-23T02:40:20;3.03;97.67
63051;SHT30;49136;47.416;19.402;2023-03-23T02:42:49;3.09;98.08
63051;SHT30;49136;47.416;19.402;2023-03-23T02:45:17;2.96;97.56
63051;SHT30;49136;47.416;19.402;2023-03-23T02:47:47;2.92;97.86
63051;SHT30;49136;47.416;19.402;2023-03-23T02:50:15;2.92;98.09
63051;SHT30;49136;47.416;19.402;2023-03-23T02:52:43;3.06;98.36
63051;SHT30;49136;47.416;19.402;2023-03-23T02:55:09;2.98;97.63
63051;SHT30;49136;47.416;19.402;2023-03-23T02:57:37;2.93;97.84
63051;SHT30;49136;47.416;19.402;2023-03-23T03:00:05;2.89;97.94
63051;SHT30;49136;47.416;19.402;2023-03-23T03:02:36;2.85;97.95
63051;SHT30;49136;47.416;19.402;2023-03-23T03:14:04;2.98;97.79
63051;SHT30;49136;47.416;19.402;2023-03-23T03:18:36;2.81;97.50
63051;SHT30;49136;47.416;19.402;2023-03-23T03:21:06;2.85;98.46
63051;SHT30;49136;47.416;19.402;2023-03-23T03:23:35;3.12;98.53
63051;SHT30;49136;47.416;19.402;2023-03-23T03:26:03;2.96;98.28
63051;SHT30;49136;47.416;19.402;2023-03-23T03:28:31;3.00;98.84
63051;SHT30;49136;47.416;19.402;2023-03-23T03:31:00;2.93;98.33
63051;SHT30;49136;47.416;19.402;2023-03-23T03:33:28;2.96;97.95
63051;SHT30;49136;47.416;19.402;2023-03-23T03:35:57;2.93;98.45
63051;SHT30;49136;47.416;19.402;2023-03-23T03:38:24;3.02;98.55
63051;SHT30;49136;47.416;19.402;2023-03-23T03:40:50;3.03;98.65
63051;SHT30;49136;47.416;19.402;2023-03-23T03:43:16;3.03;98.64
63051;SHT30;49136;47.416;19.402;2023-03-23T03:45:43;3.03;98.50
63051;SHT30;49136;47.416;19.402;2023-03-23T03:48:10;3.05;98.84
63051;SHT30;49136;47.416;19.402;2023-03-23T03:50:35;3.12;98.86
63051;SHT30;49136;47.416;19.402;2023-03-23T03:53:01;3.16;98.54
63051;SHT30;49136;47.416;19.402;2023-03-23T03:55:27;3.05;98.06
63051;SHT30;49136;47.416;19.402;2023-03-23T03:57:56;2.99;97.32
63051;SHT30;49136;47.416;19.402;2023-03-23T04:00:23;3.16;98.43
63051;SHT30;49136;47.416;19.402;2023-03-23T04:02:49;3.17;98.39
63051;SHT30;49136;47.416;19.402;2023-03-23T04:05:21;3.12;98.49
63051;SHT30;49136;47.416;19.402;2023-03-23T04:07:46;3.05;98.39
63051;SHT30;49136;47.416;19.402;2023-03-23T04:10:15;3.02;98.32
63051;SHT30;49136;47.416;19.402;2023-03-23T04:12:40;3.06;98.55
63051;SHT30;49136;47.416;19.402;2023-03-23T04:15:06;3.03;98.38
63051;SHT30;49136;47.416;19.402;2023-03-23T04:17:33;3.17;98.86
63051;SHT30;49136;47.416;19.402;2023-03-23T04:19:59;3.13;98.60
63051;SHT30;49136;47.416;19.402;2023-03-23T04:22:26;3.09;98.36
63051;SHT30;49136;47.416;19.402;2023-03-23T04:24:58;2.99;97.97
63051;SHT30;49136;47.416;19.402;2023-03-23T04:27:26;3.03;98.88
63051;SHT30;49136;47.416;19.402;2023-03-23T04:29:54;2.99;98.53
63051;SHT30;49136;47.416;19.402;2023-03-23T04:32:20;2.98;98.81
63051;SHT30;49136;47.416;19.402;2023-03-23T04:34:46;3.13;98.89
63051;SHT30;49136;47.416;19.402;2023-03-23T04:37:11;3.13;98.93
63051;SHT30;49136;47.416;19.402;2023-03-23T04:39:38;3.31;99.99
63051;SHT30;49136;47.416;19.402;2023-03-23T04:42:05;3.50;99.99
63051;SHT30;49136;47.416;19.402;2023-03-23T04:44:30;3.61;99.36
63051;SHT30;49136;47.416;19.402;2023-03-23T04:47:00;3.62;98.29
63051;SHT30;49136;47.416;19.402;2023-03-23T04:49:26;3.59;98.09
63051;SHT30;49136;47.416;19.402;2023-03-23T04:51:52;3.59;97.52
63051;SHT30;49136;47.416;19.402;2023-03-23T04:54:17;3.93;97.70
63051;SHT30;49136;47.416;19.402;2023-03-23T04:56:43;4.03;98.32
63051;SHT30;49136;47.416;19.402;2023-03-23T04:59:08;4.04;97.69
63051;SHT30;49136;47.416;19.402;2023-03-23T05:01:34;4.16;98.08
63051;SHT30;49136;47.416;19.402;2023-03-23T05:04:03;4.13;96.13
63051;SHT30;49136;47.416;19.402;2023-03-23T05:06:29;4.11;96.31
63051;SHT30;49136;47.416;19.402;2023-03-23T05:08:54;4.06;96.08
63051;SHT30;49136;47.416;19.402;2023-03-23T05:11:20;4.14;96.18
63051;SHT30;49136;47.416;19.402;2023-03-23T05:13:46;4.18;96.20
63051;SHT30;49136;47.416;19.402;2023-03-23T05:16:11;4.18;96.11
63051;SHT30;49136;47.416;19.402;2023-03-23T05:18:37;4.17;96.10
63051;SHT30;49136;47.416;19.402;2023-03-23T05:21:03;4.22;95.71
63051;SHT30;49136;47.416;19.402;2023-03-23T05:23:29;4.24;95.85
63051;SHT30;49136;47.416;19.402;2023-03-23T05:25:57;4.28;95.98
63051;SHT30;49136;47.416;19.402;2023-03-23T05:28:26;4.33;95.97
63051;SHT30;49136;47.416;19.402;2023-03-23T05:30:52;4.53;95.86
63051;SHT30;49136;47.416;19.402;2023-03-23T05:33:19;4.58;95.36
63051;SHT30;49136;47.416;19.402;2023-03-23T05:35:46;4.63;95.73
63051;SHT30;49136;47.416;19.402;2023-03-23T05:38:13;4.63;95.73
63051;SHT30;49136;47.416;19.402;2023-03-23T05:40:39;4.70;95.69
63051;SHT30;49136;47.416;19.402;2023-03-23T05:43:07;4.84;95.41
63051;SHT30;49136;47.416;19.402;2023-03-23T05:45:33;5.12;94.88
63051;SHT30;49136;47.416;19.402;2023-03-23T05:47:59;5.36;94.79
63051;SHT30;49136;47.416;19.402;2023-03-23T05:50:25;5.74;93.17
63051;SHT30;49136;47.416;19.402;2023-03-23T05:52:50;5.98;92.85
63051;SHT30;49136;47.416;19.402;2023-03-23T05:55:16;6.33;92.54
63051;SHT30;49136;47.416;19.402;2023-03-23T05:57:42;6.57;92.08
63051;SHT30;49136;47.416;19.402;2023-03-23T06:00:08;6.87;91.24
63051;SHT30;49136;47.416;19.402;2023-03-23T06:02:40;7.33;89.82
63051;SHT30;49136;47.416;19.402;2023-03-23T06:05:10;7.74;87.91
63051;SHT30;49136;47.416;19.402;2023-03-23T06:07:36;8.04;87.07
63051;SHT30;49136;47.416;19.402;2023-03-23T06:10:04;8.41;86.10
63051;SHT30;49136;47.416;19.402;2023-03-23T06:12:30;8.76;85.22
63051;SHT30;49136;47.416;19.402;2023-03-23T06:14:56;9.22;82.69
63051;SHT30;49136;47.416;19.402;2023-03-23T06:17:22;9.62;82.18
63051;SHT30;49136;47.416;19.402;2023-03-23T06:19:47;9.79;81.53
63051;SHT30;49136;47.416;19.402;2023-03-23T06:22:16;10.04;81.19
63051;SHT30;49136;47.416;19.402;2023-03-23T06:24:41;10.33;79.66
63051;SHT30;49136;47.416;19.402;2023-03-23T06:27:07;10.64;78.28
63051;SHT30;49136;47.416;19.402;2023-03-23T06:29:34;10.99;77.58
63051;SHT30;49136;47.416;19.402;2023-03-23T06:32:01;11.26;76.90
63051;SHT30;49136;47.416;19.402;2023-03-23T06:34:28;11.50;76.02
63051;SHT30;49136;47.416;19.402;2023-03-23T06:36:53;11.67;77.11
63051;SHT30;49136;47.416;19.402;2023-03-23T06:39:19;11.91;75.96
63051;SHT30;49136;47.416;19.402;2023-03-23T06:41:44;12.19;73.81
63051;SHT30;49136;47.416;19.402;2023-03-23T06:44:10;12.34;73.26
63051;SHT30;49136;47.416;19.402;2023-03-23T06:46:39;12.54;72.56
63051;SHT30;49136;47.416;19.402;2023-03-23T06:49:05;12.79;74.13
63051;SHT30;49136;47.416;19.402;2023-03-23T06:51:31;13.07;73.13
63051;SHT30;49136;47.416;19.402;2023-03-23T06:53:56;13.34;71.48
63051;SHT30;49136;47.416;19.402;2023-03-23T06:56:23;13.41;70.59
63051;SHT30;49136;47.416;19.402;2023-03-23T06:58:49;13.65;70.85
63051;SHT30;49136;47.416;19.402;2023-03-23T07:01:14;13.87;69.31
63051;SHT30;49136;47.416;19.402;2023-03-23T07:03:41;14.14;68.33
63051;SHT30;49136;47.416;19.402;2023-03-23T07:06:08;14.37;69.77
63051;SHT30;49136;47.416;19.402;2023-03-23T07:08:34;14.39;67.35
63051;SHT30;49136;47.416;19.402;2023-03-23T07:11:00;14.55;66.93
63051;SHT30;49136;47.416;19.402;2023-03-23T07:13:25;14.83;65.75
63051;SHT30;49136;47.416;19.402;2023-03-23T07:15:51;15.15;66.18
63051;SHT30;49136;47.416;19.402;2023-03-23T07:18:17;15.30;66.01
63051;SHT30;49136;47.416;19.402;2023-03-23T07:20:43;15.49;64.84
63051;SHT30;49136;47.416;19.402;2023-03-23T07:23:08;15.62;64.52
63051;SHT30;49136;47.416;19.402;2023-03-23T07:25:34;15.84;64.83
63051;SHT30;49136;47.416;19.402;2023-03-23T07:28:01;15.89;63.66
63051;SHT30;49136;47.416;19.402;2023-03-23T07:30:27;15.86;63.03
63051;SHT30;49136;47.416;19.402;2023-03-23T07:32:55;16.08;63.12
63051;SHT30;49136;47.416;19.402;2023-03-23T07:35:21;16.46;62.67
63051;SHT30;49136;47.416;19.402;2023-03-23T07:37:46;16.69;62.53
63051;SHT30;49136;47.416;19.402;2023-03-23T07:40:14;16.80;62.87
63051;SHT30;49136;47.416;19.402;2023-03-23T07:42:45;16.76;62.25
63051;SHT30;49136;47.416;19.402;2023-03-23T07:45:12;17.11;61.22
63051;SHT30;49136;47.416;19.402;2023-03-23T07:47:39;16.84;61.31
63051;SHT30;49136;47.416;19.402;2023-03-23T07:50:06;17.07;62.51
63051;SHT30;49136;47.416;19.402;2023-03-23T07:52:32;17.14;60.95
63051;SHT30;49136;47.416;19.402;2023-03-23T07:54:58;17.40;60.44
63051;SHT30;49136;47.416;19.402;2023-03-23T07:57:23;17.46;61.32
63051;SHT30;49136;47.416;19.402;2023-03-23T07:59:49;17.66;61.28
63051;SHT30;49136;47.416;19.402;2023-03-23T08:02:14;17.57;60.77
63051;SHT30;49136;47.416;19.402;2023-03-23T08:04:40;17.78;59.19
63051;SHT30;49136;47.416;19.402;2023-03-23T08:07:05;17.96;59.43
63051;SHT30;49136;47.416;19.402;2023-03-23T08:09:31;18.15;58.25
63051;SHT30;49136;47.416;19.402;2023-03-23T08:11:57;18.22;58.50
63051;SHT30;49136;47.416;19.402;2023-03-23T08:14:23;18.32;58.66
63051;SHT30;49136;47.416;19.402;2023-03-23T08:16:51;18.44;57.15
63051;SHT30;49136;47.416;19.402;2023-03-23T08:19:17;18.41;55.62
63051;SHT30;49136;47.416;19.402;2023-03-23T08:21:43;18.82;57.72
63051;SHT30;49136;47.416;19.402;2023-03-23T08:24:08;19.15;57.06
63051;SHT30;49136;47.416;19.402;2023-03-23T08:26:36;19.31;56.38
63051;SHT30;49136;47.416;19.402;2023-03-23T08:29:03;19.66;54.75
63051;SHT30;49136;47.416;19.402;2023-03-23T08:31:29;19.87;53.73
63051;SHT30;49136;47.416;19.402;2023-03-23T08:33:55;20.14;53.44
63051;SHT30;49136;47.416;19.402;2023-03-23T08:36:22;19.78;52.47
63051;SHT30;49136;47.416;19.402;2023-03-23T08:38:47;20.23;53.33
63051;SHT30;49136;47.416;19.402;2023-03-23T08:41:13;20.37;53.30
63051;SHT30;49136;47.416;19.402;2023-03-23T08:43:39;20.44;51.84
63051;SHT30;49136;47.416;19.402;2023-03-23T08:46:05;20.53;50.53
63051;SHT30;49136;47.416;19.402;2023-03-23T08:48:34;20.59;50.91
63051;SHT30;49136;47.416;19.402;2023-03-23T08:51:01;20.42;51.59
63051;SHT30;49136;47.416;19.402;2023-03-23T08:53:26;20.72;51.93
63051;SHT30;49136;47.416;19.402;2023-03-23T08:55:55;20.87;51.15
63051;SHT30;49136;47.416;19.402;2023-03-23T08:58:21;21.17;50.00
63051;SHT30;49136;47.416;19.402;2023-03-23T09:00:48;21.18;48.46
63051;SHT30;49136;47.416;19.402;2023-03-23T09:03:13;21.45;49.80
63051;SHT30;49136;47.416;19.402;2023-03-23T09:05:40;21.79;48.53
63051;SHT30;49136;47.416;19.402;2023-03-23T09:08:11;21.66;47.10
63051;SHT30;49136;47.416;19.402;2023-03-23T09:10:40;21.82;48.68
63051;SHT30;49136;47.416;19.402;2023-03-23T09:13:05;21.97;48.28
63051;SHT30;49136;47.416;19.402;2023-03-23T09:15:32;21.44;48.78
63051;SHT30;49136;47.416;19.402;2023-03-23T09:17:58;21.58;48.48
63051;SHT30;49136;47.416;19.402;2023-03-23T09:20:25;21.31;47.91
63051;SHT30;49136;47.416;19.402;2023-03-23T09:22:53;21.63;48.44
63051;SHT30;49136;47.416;19.402;2023-03-23T09:25:21;21.96;48.32
63051;SHT30;49136;47.416;19.402;2023-03-23T09:27:49;22.24;47.10
63051;SHT30;49136;47.416;19.402;2023-03-23T09:30:19;22.38;46.72
63051;SHT30;49136;47.416;19.402;2023-03-23T09:32:45;22.48;45.43
63051;SHT30;49136;47.416;19.402;2023-03-23T09:35:13;22.88;45.26
63051;SHT30;49136;47.416;19.402;2023-03-23T09:37:43;23.00;46.11
63051;SHT30;49136;47.416;19.402;2023-03-23T09:40:18;23.01;46.10
63051;SHT30;49136;47.416;19.402;2023-03-23T09:51:04;22.55;46.65
63051;SHT30;49136;47.416;19.402;2023-03-23T09:53:37;22.18;47.59
63051;SHT30;49136;47.416;19.402;2023-03-23T09:56:10;21.53;46.53
63051;SHT30;49136;47.416;19.402;2023-03-23T09:58:58;21.17;46.66
63051;SHT30;49136;47.416;19.402;2023-03-23T10:01:36;21.00;47.22
63051;SHT30;49136;47.416;19.402;2023-03-23T10:04:10;21.31;45.96
63051;SHT30;49136;47.416;19.402;2023-03-23T10:06:37;21.80;45.70
63051;SHT30;49136;47.416;19.402;2023-03-23T10:09:04;22.28;44.70
63051;SHT30;49136;47.416;19.402;2023-03-23T10:11:43;22.49;45.08
63051;SHT30;49136;47.416;19.402;2023-03-23T10:16:56;23.30;44.36
63051;SHT30;49136;47.416;19.402;2023-03-23T10:21:59;23.14;44.46
63051;SHT30;49136;47.416;19.402;2023-03-23T10:25:15;22.76;43.67
63051;SHT30;49136;47.416;19.402;2023-03-23T10:27:33;22.57;44.80
63051;SHT30;49136;47.416;19.402;2023-03-23T10:32:47;23.21;43.88
63051;SHT30;49136;47.416;19.402;2023-03-23T10:35:19;23.70;43.99
63051;SHT30;49136;47.416;19.402;2023-03-23T10:37:56;23.57;42.44
63051;SHT30;49136;47.416;19.402;2023-03-23T10:40:25;23.53;43.11
63051;SHT30;49136;47.416;19.402;2023-03-23T10:42:52;23.73;42.99
63051;SHT30;49136;47.416;19.402;2023-03-23T10:45:27;23.74;42.63
63051;SHT30;49136;47.416;19.402;2023-03-23T10:50:28;23.74;43.08
63051;SHT30;49136;47.416;19.402;2023-03-23T10:52:57;23.91;43.36
63051;SHT30;49136;47.416;19.402;2023-03-23T10:55:24;23.56;43.04
63051;SHT30;49136;47.416;19.402;2023-03-23T11:00:27;23.56;43.06
63051;SHT30;49136;47.416;19.402;2023-03-23T11:03:03;23.41;43.32
63051;SHT30;49136;47.416;19.402;2023-03-23T11:05:36;23.41;43.82
63051;SHT30;49136;47.416;19.402;2023-03-23T11:08:03;23.05;43.26
63051;SHT30;49136;47.416;19.402;2023-03-23T11:10:36;22.70;43.26
63051;SHT30;49136;47.416;19.402;2023-03-23T11:13:02;22.44;43.89
63051;SHT30;49136;47.416;19.402;2023-03-23T11:15:35;22.49;44.18
63051;SHT30;49136;47.416;19.402;2023-03-23T11:18:10;22.45;43.87
63051;SHT30;49136;47.416;19.402;2023-03-23T11:20:41;22.41;44.57
63051;SHT30;49136;47.416;19.402;2023-03-23T11:26:17;22.38;46.23
63051;SHT30;49136;47.416;19.402;2023-03-23T11:31:21;22.53;45.58
63051;SHT30;49136;47.416;19.402;2023-03-23T11:33:52;22.49;44.29
63051;SHT30;49136;47.416;19.402;2023-03-23T11:36:19;22.48;43.22
63051;SHT30;49136;47.416;19.402;2023-03-23T11:38:45;22.17;43.90
63051;SHT30;49136;47.416;19.402;2023-03-23T11:41:16;22.21;44.93
63051;SHT30;49136;47.416;19.402;2023-03-23T11:43:45;22.20;45.44
63051;SHT30;49136;47.416;19.402;2023-03-23T11:46:20;22.32;44.54
63051;SHT30;49136;47.416;19.402;2023-03-23T11:49:17;22.57;44.85
63051;SHT30;49136;47.416;19.402;2023-03-23T11:51:50;22.73;44.18
63051;SHT30;49136;47.416;19.402;2023-03-23T11:56:52;22.46;44.61
63051;SHT30;49136;47.416;19.402;2023-03-23T11:59:26;22.34;44.36
63051;SHT30;49136;47.416;19.402;2023-03-23T12:02:34;22.45;44.39
63051;SHT30;49136;47.416;19.402;2023-03-23T12:05:14;22.38;44.33
63051;SHT30;49136;47.416;19.402;2023-03-23T12:13:02;21.76;45.85
63051;SHT30;49136;47.416;19.402;2023-03-23T12:18:18;21.39;46.62
63051;SHT30;49136;47.416;19.402;2023-03-23T12:23:24;21.28;46.84
63051;SHT30;49136;47.416;19.402;2023-03-23T12:26:29;21.25;47.25
63051;SHT30;49136;47.416;19.402;2023-03-23T12:32:01;21.52;47.02
63051;SHT30;49136;47.416;19.402;2023-03-23T12:35:20;22.07;46.46
63051;SHT30;49136;47.416;19.402;2023-03-23T12:48:18;23.33;44.82
63051;SHT30;49136;47.416;19.402;2023-03-23T12:51:14;23.71;44.29
63051;SHT30;49136;47.416;19.402;2023-03-23T13:01:50;23.57;43.41
63051;SHT30;49136;47.416;19.402;2023-03-23T13:05:06;23.43;43.79
63051;SHT30;49136;47.416;19.402;2023-03-23T13:07:22;23.30;44.45
63051;SHT30;49136;47.416;19.402;2023-03-23T13:12:27;23.26;45.34
63051;SHT30;49136;47.416;19.402;2023-03-23T13:15:03;23.25;42.83
63051;SHT30;49136;47.416;19.402;2023-03-23T13:17:50;23.19;43.45
63051;SHT30;49136;47.416;19.402;2023-03-23T13:20:51;23.05;44.21
63051;SHT30;49136;47.416;19.402;2023-03-23T13:23:34;23.05;44.56
63051;SHT30;49136;47.416;19.402;2023-03-23T13:26:06;23.08;43.99
63051;SHT30;49136;47.416;19.402;2023-03-23T13:28:47;23.14;44.21
63051;SHT30;49136;47.416;19.402;2023-03-23T13:31:15;23.08;44.05
63051;SHT30;49136;47.416;19.402;2023-03-23T13:33:53;23.23;43.96
63051;SHT30;49136;47.416;19.402;2023-03-23T13:38:57;23.32;44.32
63051;SHT30;49136;47.416;19.402;2023-03-23T13:41:24;23.21;44.34
63051;SHT30;49136;47.416;19.402;2023-03-23T13:43:51;23.10;43.88
63051;SHT30;49136;47.416;19.402;2023-03-23T13:46:25;23.19;45.15
63051;SHT30;49136;47.416;19.402;2023-03-23T13:54:42;22.83;44.15
63051;SHT30;49136;47.416;19.402;2023-03-23T13:57:53;22.81;44.06
63051;SHT30;49136;47.416;19.402;2023-03-23T14:03:25;22.87;44.39
63051;SHT30;49136;47.416;19.402;2023-03-23T14:08:40;22.73;44.57
63051;SHT30;49136;47.416;19.402;2023-03-23T14:11:24;22.64;43.80
63051;SHT30;49136;47.416;19.402;2023-03-23T14:16:21;22.66;44.81
63051;SHT30;49136;47.416;19.402;2023-03-23T14:18:54;22.49;44.17
63051;SHT30;49136;47.416;19.402;2023-03-23T14:21:41;22.53;44.56
63051;SHT30;49136;47.416;19.402;2023-03-23T14:24:15;22.52;44.48
63051;SHT30;49136;47.416;19.402;2023-03-23T14:26:40;22.51;46.38
63051;SHT30;49136;47.416;19.402;2023-03-23T14:29:10;22.39;44.03
63051;SHT30;49136;47.416;19.402;2023-03-23T14:31:36;22.20;46.20
63051;SHT30;49136;47.416;19.402;2023-03-23T14:34:18;21.97;45.50
63051;SHT30;49136;47.416;19.402;2023-03-23T14:36:44;21.79;45.84
63051;SHT30;49136;47.416;19.402;2023-03-23T14:39:30;21.55;46.49
63051;SHT30;49136;47.416;19.402;2023-03-23T14:42:02;21.48;46.45
63051;SHT30;49136;47.416;19.402;2023-03-23T14:44:40;21.27;46.73
63051;SHT30;49136;47.416;19.402;2023-03-23T14:47:10;21.23;47.47
63051;SHT30;49136;47.416;19.402;2023-03-23T14:49:38;21.24;47.29
63051;SHT30;49136;47.416;19.402;2023-03-23T14:52:15;21.34;47.83
63051;SHT30;49136;47.416;19.402;2023-03-23T14:54:42;21.35;46.01
63051;SHT30;49136;47.416;19.402;2023-03-23T14:57:16;21.28;45.80
63051;SHT30;49136;47.416;19.402;2023-03-23T14:59:44;21.37;46.57
63051;SHT30;49136;47.416;19.402;2023-03-23T15:02:23;21.38;45.88
63051;SHT30;49136;47.416;19.402;2023-03-23T15:04:56;21.30;46.30
63051;SHT30;49136;47.416;19.402;2023-03-23T15:07:37;21.08;46.65
63051;SHT30;49136;47.416;19.402;2023-03-23T15:10:09;20.89;46.80
63051;SHT30;49136;47.416;19.402;2023-03-23T15:12:39;20.93;47.39
63051;SHT30;49136;47.416;19.402;2023-03-23T15:15:07;20.76;47.09
63051;SHT30;49136;47.416;19.402;2023-03-23T15:17:45;20.53;47.39
63051;SHT30;49136;47.416;19.402;2023-03-23T15:20:46;20.49;47.98
63051;SHT30;49136;47.416;19.402;2023-03-23T15:23:28;20.51;47.83
63051;SHT30;49136;47.416;19.402;2023-03-23T15:25:56;20.53;46.86
63051;SHT30;49136;47.416;19.402;2023-03-23T15:28:31;20.45;47.92
63051;SHT30;49136;47.416;19.402;2023-03-23T15:31:04;20.34;47.36
63051;SHT30;49136;47.416;19.402;2023-03-23T15:33:35;20.33;48.03
63051;SHT30;49136;47.416;19.402;2023-03-23T15:36:07;20.23;48.28
63051;SHT30;49136;47.416;19.402;2023-03-23T15:38:34;20.10;47.89
63051;SHT30;49136;47.416;19.402;2023-03-23T15:41:03;20.00;47.91
63051;SHT30;49136;47.416;19.402;2023-03-23T15:43:35;19.81;48.69
63051;SHT30;49136;47.416;19.402;2023-03-23T15:49:07;19.40;49.93
63051;SHT30;49136;47.416;19.402;2023-03-23T15:51:33;19.35;49.38
63051;SHT30;49136;47.416;19.402;2023-03-23T15:53:59;19.23;49.44
63051;SHT30;49136;47.416;19.402;2023-03-23T15:56:25;19.13;50.83
63051;SHT30;49136;47.416;19.402;2023-03-23T15:58:51;19.09;51.08
63051;SHT30;49136;47.416;19.402;2023-03-23T16:01:19;19.02;51.56
63051;SHT30;49136;47.416;19.402;2023-03-23T16:06:14;19.00;51.70
63051;SHT30;49136;47.416;19.402;2023-03-23T16:08:41;18.98;51.93
63051;SHT30;49136;47.416;19.402;2023-03-23T16:11:10;18.88;51.76
63051;SHT30;49136;47.416;19.402;2023-03-23T16:13:36;18.75;52.06
63051;SHT30;49136;47.416;19.402;2023-03-23T16:16:02;18.60;52.45
63051;SHT30;49136;47.416;19.402;2023-03-23T16:18:29;18.48;52.46
63051;SHT30;49136;47.416;19.402;2023-03-23T16:20:55;18.30;53.95
63051;SHT30;49136;47.416;19.402;2023-03-23T16:23:21;18.13;53.56
63051;SHT30;49136;47.416;19.402;2023-03-23T16:25:48;17.99;54.51
63051;SHT30;49136;47.416;19.402;2023-03-23T16:28:14;17.95;54.00
63051;SHT30;49136;47.416;19.402;2023-03-23T16:30:41;17.64;55.72
63051;SHT30;49136;47.416;19.402;2023-03-23T16:33:06;17.45;56.19
63051;SHT30;49136;47.416;19.402;2023-03-23T16:35:32;17.29;56.53
63051;SHT30;49136;47.416;19.402;2023-03-23T16:37:57;17.12;57.12
63051;SHT30;49136;47.416;19.402;2023-03-23T16:40:24;16.98;57.28
63051;SHT30;49136;47.416;19.402;2023-03-23T16:42:49;16.77;58.03
63051;SHT30;49136;47.416;19.402;2023-03-23T16:45:16;16.61;58.59
63051;SHT30;49136;47.416;19.402;2023-03-23T16:47:43;16.48;58.92
63051;SHT30;49136;47.416;19.402;2023-03-23T16:50:12;16.42;59.04
63051;SHT30;49136;47.416;19.402;2023-03-23T16:52:40;16.19;58.91
63051;SHT30;49136;47.416;19.402;2023-03-23T16:55:07;16.01;59.49
63051;SHT30;49136;47.416;19.402;2023-03-23T16:57:34;15.90;59.73
63051;SHT30;49136;47.416;19.402;2023-03-23T17:00:06;15.80;60.45
63051;SHT30;49136;47.416;19.402;2023-03-23T17:02:33;15.67;61.55
63051;SHT30;49136;47.416;19.402;2023-03-23T17:04:59;15.49;62.56
63051;SHT30;49136;47.416;19.402;2023-03-23T17:07:26;15.18;62.12
63051;SHT30;49136;47.416;19.402;2023-03-23T17:09:52;15.01;62.41
63051;SHT30;49136;47.416;19.402;2023-03-23T17:12:17;14.75;63.86
63051;SHT30;49136;47.416;19.402;2023-03-23T17:14:43;14.61;63.62
63051;SHT30;49136;47.416;19.402;2023-03-23T17:17:08;14.41;64.25
63051;SHT30;49136;47.416;19.402;2023-03-23T17:19:34;14.27;64.53
63051;SHT30;49136;47.416;19.402;2023-03-23T17:22:00;14.10;65.17
63051;SHT30;49136;47.416;19.402;2023-03-23T17:24:26;14.00;66.34
63051;SHT30;49136;47.416;19.402;2023-03-23T17:26:52;13.90;66.82
63051;SHT30;49136;47.416;19.402;2023-03-23T17:29:18;13.73;66.72
63051;SHT30;49136;47.416;19.402;2023-03-23T17:31:44;13.51;67.13